Time;durP1;ratioP1;P1;durP2;ratioP2;P2;SDS_P1;SDS_P2;PMS_P1;PMS_P2;Temp;Humidity;BMP_temperature;BMP_pressure;BME280_temperature;BME280_humidity;BME280_pressure;Samples;Min_cycle;Max_cycle;Signal;HPM_P1;HPM_P2
2022/05/10 00:00:57;;;;;;;1.42;1.42;;;12.70;99.90;;;;;;5183372;28;20255;-77
2022/05/10 00:03:38;;;;;;;1.30;1.05;;;12.70;99.90;;;;;;5185780;28;20034;-78
2022/05/10 00:06:16;;;;;;;0.70;0.70;;;12.60;99.90;;;;;;5172858;28;20076;-77
2022/05/10 00:08:48;;;;;;;0.80;0.80;;;12.60;99.90;;;;;;5184483;28;20024;-79
2022/05/10 00:11:22;;;;;;;0.95;0.90;;;12.60;99.90;;;;;;5182946;28;20038;-78
2022/05/10 00:13:55;;;;;;;0.70;0.70;;;12.60;99.90;;;;;;5183308;28;20275;-77
2022/05/10 00:16:27;;;;;;;1.33;1.33;;;12.70;99.90;;;;;;5149772;28;20232;-76
2022/05/10 00:18:58;;;;;;;0.75;0.75;;;12.80;99.90;;;;;;5163987;28;20190;-78
2022/05/10 00:21:32;;;;;;;0.77;0.77;;;12.80;99.90;;;;;;5129418;28;20045;-78
2022/05/10 00:24:06;;;;;;;1.10;1.10;;;12.90;99.90;;;;;;5177763;28;20034;-78
2022/05/10 00:26:39;;;;;;;1.88;1.70;;;12.80;99.90;;;;;;5166196;28;20032;-78
2022/05/10 00:29:10;;;;;;;0.82;0.82;;;12.70;99.90;;;;;;5183386;28;20030;-79
2022/05/10 00:31:43;;;;;;;1.10;1.10;;;12.60;99.90;;;;;;5183484;28;20329;-78
2022/05/10 00:34:20;;;;;;;1.00;1.00;;;12.50;99.90;;;;;;5183574;28;20036;-78
2022/05/10 00:36:54;;;;;;;0.90;0.90;;;12.30;99.90;;;;;;5182434;28;20033;-78
2022/05/10 00:39:28;;;;;;;0.75;0.75;;;12.10;99.90;;;;;;5183178;28;20041;-78
2022/05/10 00:42:27;;;;;;;1.23;1.23;;;12.00;99.90;;;;;;5182458;28;20405;-78
2022/05/10 00:45:02;;;;;;;0.80;0.80;;;11.80;99.90;;;;;;5182307;28;20282;-78
2022/05/10 00:47:50;;;;;;;;;;;11.70;99.90;;;;;;5183561;28;20139;-78
2022/05/10 00:50:41;;;;;;;0.60;0.60;;;11.50;99.90;;;;;;5182069;28;19909;-77
2022/05/10 00:53:15;;;;;;;0.70;0.70;;;11.50;99.90;;;;;;5182864;28;20052;-76
2022/05/10 00:56:18;;;;;;;1.67;1.58;;;11.50;99.90;;;;;;5180983;28;20030;-76
2022/05/10 00:59:15;;;;;;;0.85;0.85;;;11.50;99.90;;;;;;5108747;29;20050;-77
2022/05/10 01:01:51;;;;;;;0.60;0.60;;;11.50;99.90;;;;;;5119517;29;20039;-76
2022/05/10 01:04:25;;;;;;;1.00;1.00;;;11.50;99.90;;;;;;5093988;29;20031;-76
2022/05/10 01:07:36;;;;;;;1.17;1.17;;;11.60;99.90;;;;;;5104152;29;20042;-75
2022/05/10 01:10:16;;;;;;;1.20;1.20;;;11.60;99.90;;;;;;5120060;28;20112;-76
2022/05/10 01:12:53;;;;;;;0.80;0.80;;;11.60;99.90;;;;;;5109475;28;20035;-76
2022/05/10 01:15:30;;;;;;;1.40;1.40;;;11.60;99.90;;;;;;5116343;28;20049;-76
2022/05/10 01:18:02;;;;;;;0.80;0.80;;;11.50;99.90;;;;;;5103521;29;20031;-77
2022/05/10 01:20:41;;;;;;;1.15;1.15;;;11.40;99.90;;;;;;5119587;29;20023;-75
2022/05/10 01:23:27;;;;;;;0.75;0.75;;;11.30;99.90;;;;;;5110051;28;20451;-76
2022/05/10 01:26:20;;;;;;;0.80;0.80;;;11.30;99.90;;;;;;5124253;28;20042;-77
2022/05/10 01:28:59;;;;;;;1.02;1.02;;;11.30;99.90;;;;;;5121723;28;20351;-78
2022/05/10 01:33:29;;;;;;;0.70;0.70;;;11.30;99.90;;;;;;5125090;28;20031;-76
2022/05/10 01:34:49;;;;;;;0.65;0.65;;;11.20;99.90;;;;;;5144172;28;20037;-75
2022/05/10 01:37:24;;;;;;;0.77;0.77;;;11.10;99.90;;;;;;5166986;28;20354;-75
2022/05/10 01:40:02;;;;;;;0.80;0.80;;;11.10;99.90;;;;;;5174785;28;20044;-77
2022/05/10 01:43:14;;;;;;;1.00;1.00;;;11.00;99.90;;;;;;5182581;28;20081;-76
2022/05/10 01:45:57;;;;;;;0.70;0.70;;;11.10;99.90;;;;;;5172673;28;20265;-75
2022/05/10 01:48:36;;;;;;;0.65;0.65;;;11.10;99.90;;;;;;5177436;28;20026;-76
2022/05/10 01:51:15;;;;;;;0.82;0.82;;;11.10;99.90;;;;;;5177674;28;20278;-76
2022/05/10 01:53:47;;;;;;;0.80;0.80;;;11.00;99.90;;;;;;5157958;28;20063;-74
2022/05/10 01:56:24;;;;;;;0.80;0.80;;;11.00;99.90;;;;;;5181410;28;20257;-74
2022/05/10 01:58:56;;;;;;;1.30;1.20;;;10.90;99.90;;;;;;5172804;28;20231;-77
2022/05/10 02:01:41;;;;;;;0.80;0.80;;;10.90;99.90;;;;;;5164751;28;20319;-76
2022/05/10 02:04:20;;;;;;;0.90;0.90;;;10.90;99.90;;;;;;5154220;28;20034;-79
2022/05/10 02:07:08;;;;;;;1.02;1.02;;;10.80;99.90;;;;;;5179327;28;20057;-77
2022/05/10 02:09:45;;;;;;;0.50;0.50;;;10.70;99.90;;;;;;5181898;28;20315;-77
2022/05/10 02:12:19;;;;;;;1.05;1.05;;;10.70;99.90;;;;;;5181574;28;20034;-76
2022/05/10 02:15:05;;;;;;;0.63;0.63;;;10.60;99.90;;;;;;5181967;28;20044;-76
2022/05/10 02:18:06;;;;;;;0.85;0.85;;;10.60;99.90;;;;;;5163083;28;20026;-75
2022/05/10 02:21:00;;;;;;;0.60;0.60;;;10.60;99.90;;;;;;5173947;28;20445;-77
2022/05/10 02:24:02;;;;;;;1.05;1.05;;;10.50;99.90;;;;;;5177229;28;20046;-77
2022/05/10 02:26:52;;;;;;;0.80;0.80;;;10.40;99.90;;;;;;5179156;28;20320;-77
2022/05/10 02:29:37;;;;;;;1.02;1.02;;;10.40;99.90;;;;;;5181458;28;20357;-77
2022/05/10 02:35:10;;;;;;;1.05;1.05;;;10.30;99.90;;;;;;5180824;28;20021;-76
2022/05/10 02:37:42;;;;;;;0.60;0.60;;;10.20;99.90;;;;;;5143076;28;20327;-77
2022/05/10 02:40:14;;;;;;;0.52;0.52;;;10.10;99.90;;;;;;5161652;28;20207;-77
2022/05/10 02:42:48;;;;;;;1.10;1.10;;;10.10;99.90;;;;;;5163219;28;20048;-76
2022/05/10 02:45:20;;;;;;;0.75;0.75;;;10.10;99.90;;;;;;5163059;28;20350;-76
2022/05/10 02:47:51;;;;;;;0.80;0.80;;;10.10;99.90;;;;;;5180295;28;20397;-76
2022/05/10 02:50:29;;;;;;;0.70;0.70;;;10.10;99.90;;;;;;5132357;28;20220;-76
2022/05/10 02:53:00;;;;;;;0.73;0.73;;;10.10;99.90;;;;;;5162916;28;20219;-77
2022/05/10 02:55:44;;;;;;;0.60;0.60;;;10.10;99.90;;;;;;5162726;28;20254;-76
2022/05/10 02:58:27;;;;;;;0.90;0.90;;;10.10;99.90;;;;;;5181341;28;20317;-77
2022/05/10 03:01:24;;;;;;;1.40;1.30;;;10.10;99.90;;;;;;5181368;28;20101;-77
2022/05/10 03:03:58;;;;;;;0.57;0.57;;;10.10;99.90;;;;;;5175586;28;20030;-77
2022/05/10 03:06:29;;;;;;;;;;;10.10;99.90;;;;;;5151625;28;20062;-77
2022/05/10 03:09:02;;;;;;;0.77;0.77;;;10.00;99.90;;;;;;5143942;28;20093;-76
2022/05/10 03:11:35;;;;;;;0.85;0.85;;;10.00;99.90;;;;;;5164489;28;20346;-75
2022/05/10 03:14:08;;;;;;;5.75;2.47;;;10.00;99.90;;;;;;5165629;28;20033;-75
2022/05/10 03:16:39;;;;;;;0.50;0.50;;;10.00;99.90;;;;;;5168596;28;20034;-77
2022/05/10 03:19:11;;;;;;;0.70;0.70;;;9.90;99.90;;;;;;5178354;28;20342;-77
2022/05/10 03:21:42;;;;;;;0.95;0.95;;;9.80;99.90;;;;;;5194710;28;20066;-76
2022/05/10 03:24:16;;;;;;;1.00;1.00;;;9.80;99.90;;;;;;5170304;28;20030;-78
2022/05/10 03:26:50;;;;;;;0.85;0.85;;;9.80;99.90;;;;;;5151633;28;20057;-77
2022/05/10 03:29:25;;;;;;;0.80;0.80;;;9.70;99.90;;;;;;5162864;28;20041;-76
2022/05/10 03:32:02;;;;;;;;;;;9.80;99.90;;;;;;5163878;28;20046;-77
2022/05/10 03:37:31;;;;;;;0.90;0.90;;;9.90;99.90;;;;;;5165807;28;20044;-75
2022/05/10 03:40:03;;;;;;;0.60;0.60;;;10.10;99.90;;;;;;5184315;28;20036;-76
2022/05/10 03:42:40;;;;;;;0.95;0.95;;;10.20;99.90;;;;;;5165961;28;20042;-77
2022/05/10 03:45:18;;;;;;;0.95;0.95;;;10.20;99.90;;;;;;5162204;28;20040;-76
2022/05/10 03:47:51;;;;;;;1.40;1.40;;;10.30;99.90;;;;;;5168853;28;20038;-76
2022/05/10 03:50:24;;;;;;;1.50;1.50;;;10.40;99.90;;;;;;5183749;28;20022;-76
2022/05/10 03:53:01;;;;;;;1.00;0.98;;;10.50;99.90;;;;;;5166738;28;20045;-77
2022/05/10 03:55:32;;;;;;;1.20;1.20;;;10.60;99.90;;;;;;5166923;28;20025;-77
2022/05/10 03:58:07;;;;;;;1.05;1.05;;;10.70;99.90;;;;;;5167295;28;20040;-75
2022/05/10 04:00:38;;;;;;;1.35;1.35;;;10.80;99.90;;;;;;5182425;28;20042;-77
2022/05/10 04:03:12;;;;;;;1.10;1.10;;;10.80;99.90;;;;;;5150446;28;20040;-76
2022/05/10 04:05:45;;;;;;;1.20;1.20;;;10.90;99.90;;;;;;5173696;28;20060;-76
2022/05/10 04:08:19;;;;;;;1.27;1.27;;;11.10;99.90;;;;;;5183419;28;20258;-75
2022/05/10 04:10:55;;;;;;;0.83;0.83;;;11.20;99.90;;;;;;5168000;28;20211;-75
2022/05/10 04:13:26;;;;;;;1.48;1.48;;;11.30;99.90;;;;;;5189956;28;20319;-75
2022/05/10 04:16:01;;;;;;;0.60;0.60;;;11.40;99.90;;;;;;5173224;28;20325;-77
2022/05/10 04:18:34;;;;;;;0.60;0.60;;;11.60;99.90;;;;;;5174237;28;20033;-76
2022/05/10 04:21:08;;;;;;;1.42;1.23;;;11.70;99.90;;;;;;5190203;28;20040;-77
2022/05/10 04:23:39;;;;;;;1.00;1.00;;;11.80;99.90;;;;;;5163861;28;20081;-76
2022/05/10 04:26:13;;;;;;;1.60;1.50;;;11.90;99.90;;;;;;5166333;28;20042;-75
2022/05/10 04:28:47;;;;;;;1.25;1.25;;;12.10;99.90;;;;;;5149071;28;20133;-76
2022/05/10 04:31:23;;;;;;;1.20;1.20;;;12.20;99.90;;;;;;5184673;28;20040;-76
2022/05/10 04:33:55;;;;;;;0.90;0.90;;;12.40;99.90;;;;;;5185552;28;20041;-78
2022/05/10 04:36:29;;;;;;;0.93;0.93;;;12.50;99.90;;;;;;5151113;28;20048;-76
2022/05/10 04:39:00;;;;;;;0.77;0.77;;;12.70;99.90;;;;;;5151659;28;20050;-75
2022/05/10 04:41:38;;;;;;;1.70;1.60;;;12.70;99.90;;;;;;5183335;28;20034;-76
2022/05/10 04:44:10;;;;;;;1.20;1.20;;;13.00;99.90;;;;;;5184953;28;20038;-78
2022/05/10 04:46:42;;;;;;;0.98;0.98;;;13.30;99.90;;;;;;5167060;28;20024;-75
2022/05/10 04:49:16;;;;;;;0.80;0.80;;;13.40;99.90;;;;;;5181712;28;20034;-77
2022/05/10 04:51:47;;;;;;;1.00;1.00;;;13.60;99.90;;;;;;5182606;28;20044;-77
2022/05/10 04:54:18;;;;;;;0.75;0.75;;;13.70;99.90;;;;;;5182221;28;20038;-78
2022/05/10 04:56:52;;;;;;;1.17;1.17;;;13.90;99.90;;;;;;5150933;28;20045;-77
2022/05/10 04:59:25;;;;;;;1.77;1.67;;;14.20;99.90;;;;;;5184643;28;20254;-75
2022/05/10 05:01:56;;;;;;;0.70;0.70;;;14.40;99.90;;;;;;5166536;28;20022;-78
2022/05/10 05:04:28;;;;;;;1.00;1.00;;;14.60;99.90;;;;;;5169740;28;20037;-78
2022/05/10 05:06:59;;;;;;;1.15;1.15;;;14.70;99.90;;;;;;5181417;28;20030;-77
2022/05/10 05:09:34;;;;;;;0.90;0.90;;;14.90;99.90;;;;;;5165314;28;20233;-75
2022/05/10 05:12:09;;;;;;;1.23;1.23;;;15.20;99.90;;;;;;5164006;28;20128;-77
2022/05/10 05:14:41;;;;;;;1.05;1.05;;;15.50;99.90;;;;;;5148535;28;20044;-78
2022/05/10 05:17:17;;;;;;;0.60;0.60;;;15.80;99.90;;;;;;5182819;28;20022;-77
2022/05/10 05:19:48;;;;;;;1.52;1.42;;;16.10;99.90;;;;;;5183685;28;20038;-78
2022/05/10 05:22:22;;;;;;;0.70;0.70;;;16.40;99.90;;;;;;5183908;28;20034;-77
2022/05/10 05:24:55;;;;;;;0.82;0.82;;;16.50;99.90;;;;;;5182894;28;20013;-77
2022/05/10 05:27:26;;;;;;;1.10;1.10;;;16.70;99.90;;;;;;5178435;28;20030;-78
2022/05/10 05:30:05;;;;;;;1.27;1.27;;;16.90;99.90;;;;;;5166147;28;20030;-78
2022/05/10 05:32:37;;;;;;;0.82;0.82;;;16.90;99.90;;;;;;5182509;28;20028;-78
2022/05/10 05:35:13;;;;;;;1.50;1.40;;;16.80;99.90;;;;;;5182351;28;20129;-78
2022/05/10 05:37:47;;;;;;;1.08;1.08;;;17.00;99.90;;;;;;5165502;28;20060;-78
2022/05/10 05:40:21;;;;;;;1.23;0.93;;;16.80;99.90;;;;;;5158244;28;20030;-75
2022/05/10 05:42:56;;;;;;;0.95;0.95;;;17.10;99.90;;;;;;5162122;28;20049;-78
2022/05/10 05:45:30;;;;;;;0.80;0.80;;;17.60;99.90;;;;;;5169241;28;20026;-79
2022/05/10 05:48:05;;;;;;;3.13;1.67;;;18.00;99.90;;;;;;5170119;28;20048;-79
2022/05/10 05:50:37;;;;;;;1.25;1.25;;;18.30;99.90;;;;;;5149066;28;20034;-79
2022/05/10 05:53:10;;;;;;;1.23;1.23;;;18.70;99.90;;;;;;5170782;28;20034;-78
2022/05/10 05:55:47;;;;;;;0.80;0.80;;;19.10;99.90;;;;;;5146397;28;20235;-79
2022/05/10 05:58:20;;;;;;;0.73;0.73;;;19.60;99.90;;;;;;5181652;28;20033;-77
2022/05/10 06:00:52;;;;;;;0.88;0.88;;;19.80;99.90;;;;;;5158170;28;20322;-77
2022/05/10 06:03:25;;;;;;;0.63;0.63;;;19.40;99.90;;;;;;5163734;28;20340;-78
2022/05/10 06:05:56;;;;;;;1.00;1.00;;;19.40;99.90;;;;;;5154561;28;20058;-78
2022/05/10 06:08:28;;;;;;;0.70;0.70;;;19.80;99.90;;;;;;5182030;28;20185;-79
2022/05/10 06:10:59;;;;;;;0.80;0.80;;;19.70;99.90;;;;;;5147445;28;20040;-77
2022/05/10 06:13:33;;;;;;;0.65;0.65;;;19.90;99.90;;;;;;5173939;28;20044;-77
2022/05/10 06:16:10;;;;;;;0.60;0.60;;;20.00;99.90;;;;;;5167179;28;20042;-75
2022/05/10 06:18:44;;;;;;;0.80;0.80;;;20.00;99.90;;;;;;5143597;28;20034;-76
2022/05/10 06:21:23;;;;;;;0.73;0.73;;;19.70;99.90;;;;;;5168667;28;20040;-76
2022/05/10 06:23:54;;;;;;;1.15;1.15;;;19.80;99.90;;;;;;5157911;28;20227;-76
2022/05/10 06:26:28;;;;;;;0.93;0.93;;;20.10;99.90;;;;;;5181009;28;20034;-76
2022/05/10 06:29:05;;;;;;;6.53;1.65;;;20.50;99.90;;;;;;5181456;28;20044;-76
2022/05/10 06:31:43;;;;;;;0.60;0.60;;;20.70;99.90;;;;;;5180654;28;20038;-76
2022/05/10 06:34:15;;;;;;;0.75;0.75;;;20.80;99.90;;;;;;5161082;28;20193;-77
2022/05/10 06:36:47;;;;;;;0.60;0.60;;;21.10;99.90;;;;;;5172304;28;20248;-76
2022/05/10 06:39:18;;;;;;;0.57;0.57;;;21.70;99.90;;;;;;5179987;28;20036;-77
2022/05/10 06:41:52;;;;;;;0.90;0.90;;;21.60;99.90;;;;;;5175827;28;20374;-77
2022/05/10 06:44:25;;;;;;;0.73;0.73;;;21.10;99.90;;;;;;5168759;28;20053;-76
2022/05/10 06:47:03;;;;;;;0.73;0.73;;;21.20;99.90;;;;;;5178088;28;20034;-76
2022/05/10 06:49:36;;;;;;;1.05;1.05;;;21.30;99.90;;;;;;5173025;28;20037;-79
2022/05/10 06:52:07;;;;;;;0.95;0.95;;;22.00;99.90;;;;;;5156767;28;20044;-77
2022/05/10 06:54:38;;;;;;;0.60;0.60;;;22.50;99.90;;;;;;5171558;28;20037;-77
2022/05/10 06:57:10;;;;;;;2.58;2.30;;;22.90;99.90;;;;;;5173728;28;20169;-78
2022/05/10 06:59:43;;;;;;;0.98;0.98;;;23.10;99.90;;;;;;5179109;28;20025;-78
2022/05/10 07:02:18;;;;;;;0.82;0.82;;;23.10;99.90;;;;;;5163171;28;20393;-76
2022/05/10 07:04:49;;;;;;;1.02;0.95;;;22.10;99.90;;;;;;5155396;28;20046;-77
2022/05/10 07:07:22;;;;;;;2.40;1.20;;;22.10;99.90;;;;;;5170597;28;20138;-76
2022/05/10 07:09:58;;;;;;;1.35;0.88;;;22.70;99.90;;;;;;5172292;28;20235;-78
2022/05/10 07:12:29;;;;;;;0.70;0.70;;;23.30;99.90;;;;;;5169591;28;20324;-77
2022/05/10 07:15:02;;;;;;;0.40;0.40;;;23.70;99.90;;;;;;5151800;28;20061;-77
2022/05/10 07:17:37;;;;;;;0.55;0.55;;;23.50;99.90;;;;;;5178444;28;20038;-78
2022/05/10 07:20:11;;;;;;;0.70;0.70;;;24.10;99.90;;;;;;5180377;28;20040;-75
2022/05/10 07:22:42;;;;;;;1.33;1.23;;;24.70;99.90;;;;;;5164386;28;20025;-76
2022/05/10 07:25:19;;;;;;;0.70;0.70;;;24.10;99.90;;;;;;5181215;28;20029;-78
2022/05/10 07:27:53;;;;;;;0.77;0.77;;;24.60;99.90;;;;;;5163783;28;20320;-77
2022/05/10 07:30:27;;;;;;;0.60;0.60;;;24.70;99.90;;;;;;5169904;28;20515;-75
2022/05/10 07:32:58;;;;;;;1.30;1.27;;;24.70;99.90;;;;;;5164210;28;20026;-77
2022/05/10 07:38:24;;;;;;;0.50;0.50;;;24.70;99.90;;;;;;5175386;28;20038;-76
2022/05/10 07:40:56;;;;;;;0.50;0.50;;;25.30;99.90;;;;;;5165478;28;20334;-78
2022/05/10 07:43:27;;;;;;;1.55;1.45;;;25.70;99.90;;;;;;5181364;28;20045;-76
2022/05/10 07:45:59;;;;;;;0.57;0.57;;;25.80;99.90;;;;;;5162670;28;20296;-77
2022/05/10 07:48:33;;;;;;;0.98;0.88;;;25.70;99.90;;;;;;5155546;28;20052;-78
2022/05/10 07:51:05;;;;;;;0.70;0.70;;;25.70;99.90;;;;;;5194482;28;20021;-77
2022/05/10 07:53:38;;;;;;;0.73;0.73;;;25.50;99.90;;;;;;5191464;28;20037;-76
2022/05/10 07:56:12;;;;;;;1.70;1.60;;;25.50;99.90;;;;;;5182594;28;20030;-77
2022/05/10 07:58:46;;;;;;;1.17;1.10;;;25.60;99.90;;;;;;5140889;28;20034;-78
2022/05/10 08:01:20;;;;;;;0.85;0.85;;;25.40;99.90;;;;;;5180073;28;20050;-75
2022/05/10 08:03:52;;;;;;;0.50;0.50;;;26.10;99.90;;;;;;5161813;28;20050;-78
2022/05/10 08:06:27;;;;;;;0.82;0.82;;;26.50;99.90;;;;;;5169103;28;20287;-77
2022/05/10 08:08:58;;;;;;;0.40;0.40;;;26.10;99.90;;;;;;5180661;28;20040;-77
2022/05/10 08:11:37;;;;;;;0.50;0.50;;;26.10;99.90;;;;;;5180757;28;20036;-75
2022/05/10 08:14:08;;;;;;;0.70;0.70;;;26.40;99.90;;;;;;5180180;28;20038;-78
2022/05/10 08:16:40;;;;;;;2.05;1.48;;;26.10;99.90;;;;;;5173964;28;20034;-77
2022/05/10 08:19:15;;;;;;;6.22;2.22;;;25.10;99.90;;;;;;5150339;28;20316;-77
2022/05/10 08:21:49;;;;;;;0.70;0.70;;;25.20;99.90;;;;;;5178345;28;20030;-78
2022/05/10 08:24:26;;;;;;;1.10;1.10;;;25.80;99.90;;;;;;5183153;28;20369;-77
2022/05/10 08:26:57;;;;;;;1.23;1.20;;;26.80;99.90;;;;;;5148466;28;20044;-76
2022/05/10 08:29:33;;;;;;;1.38;1.05;;;27.50;99.90;;;;;;5158076;28;20287;-76
2022/05/10 08:32:04;;;;;;;0.60;0.60;;;27.50;99.90;;;;;;5165820;28;20192;-76
2022/05/10 08:34:36;;;;;;;1.05;1.05;;;27.80;99.90;;;;;;5182889;28;20172;-78
2022/05/10 08:37:11;;;;;;;0.65;0.65;;;27.70;99.90;;;;;;5179076;28;20252;-77
2022/05/10 08:39:42;;;;;;;0.85;0.85;;;27.50;99.90;;;;;;5160394;28;20048;-79
2022/05/10 08:42:33;;;;;;;1.88;1.50;;;27.00;99.90;;;;;;5181689;28;20034;-77
2022/05/10 08:45:07;;;;;;;0.60;0.60;;;27.00;99.90;;;;;;5164667;28;20315;-76
2022/05/10 08:47:41;;;;;;;0.60;0.60;;;26.10;99.90;;;;;;5181373;28;20247;-78
2022/05/10 08:50:16;;;;;;;0.52;0.52;;;26.70;99.90;;;;;;5164524;28;20029;-79
2022/05/10 08:52:51;;;;;;;0.85;0.85;;;26.70;99.90;;;;;;5181293;28;20018;-81
2022/05/10 08:55:30;;;;;;;2.17;1.55;;;27.50;99.90;;;;;;5181202;28;20258;-78
2022/05/10 08:58:08;;;;;;;0.50;0.50;;;28.00;99.90;;;;;;5182399;28;20041;-78
2022/05/10 09:00:49;;;;;;;0.82;0.82;;;28.90;99.90;;;;;;5182347;28;20028;-76
2022/05/10 09:03:49;;;;;;;0.95;0.95;;;29.10;99.90;;;;;;5181804;28;20227;-76
2022/05/10 09:06:37;;;;;;;1.42;1.35;;;29.20;99.90;;;;;;5172202;28;20046;-78
2022/05/10 09:09:23;;;;;;;0.85;0.85;;;29.60;99.90;;;;;;5178637;28;20017;-77
2022/05/10 09:12:17;;;;;;;0.60;0.60;;;28.90;99.90;;;;;;5163573;28;20251;-76
2022/05/10 09:15:01;;;;;;;0.43;0.43;;;28.90;99.90;;;;;;5159981;28;20042;-78
2022/05/10 09:17:37;;;;;;;2.25;1.60;;;28.80;99.90;;;;;;5181676;28;20349;-77
2022/05/10 09:20:11;;;;;;;0.63;0.63;;;28.50;99.90;;;;;;5181405;28;20030;-77
2022/05/10 09:23:03;;;;;;;1.10;1.08;;;28.40;99.90;;;;;;5182176;28;20034;-78
2022/05/10 09:25:36;;;;;;;0.85;0.85;;;27.70;99.90;;;;;;5176489;28;20044;-79
2022/05/10 09:28:23;;;;;;;0.50;0.50;;;28.50;99.90;;;;;;5163195;28;20353;-77
2022/05/10 09:36:35;;;;;;;0.60;0.60;;;29.60;99.90;;;;;;5175845;28;20026;-78
2022/05/10 09:39:23;;;;;;;0.80;0.80;;;29.90;99.90;;;;;;5180333;28;20040;-80
2022/05/10 09:45:02;;;;;;;0.98;0.98;;;30.50;99.90;;;;;;5180263;28;20037;-79
2022/05/10 09:47:34;;;;;;;0.82;0.82;;;30.80;99.90;;;;;;5180456;28;20344;-79
2022/05/10 09:50:21;;;;;;;0.50;0.50;;;31.50;99.90;;;;;;5159215;28;20250;-78
2022/05/10 09:53:25;;;;;;;0.60;0.60;;;31.50;99.90;;;;;;5177500;28;20296;-80
2022/05/10 09:56:11;;;;;;;0.50;0.50;;;31.30;99.90;;;;;;5180748;28;20087;-79
2022/05/10 09:58:52;;;;;;;0.70;0.70;;;31.20;99.90;;;;;;5182477;28;20036;-78
2022/05/10 10:02:00;;;;;;;0.38;0.38;;;29.90;99.90;;;;;;5159448;28;20028;-79
2022/05/10 10:04:37;;;;;;;0.50;0.50;;;30.20;99.90;;;;;;5106537;28;20059;-81
2022/05/10 10:07:17;;;;;;;0.40;0.40;;;30.50;99.90;;;;;;5115751;28;20333;-77
2022/05/10 10:09:55;;;;;;;0.75;0.75;;;30.70;99.90;;;;;;5101751;29;20147;-79
2022/05/10 10:12:31;;;;;;;0.93;0.93;;;31.30;99.90;;;;;;5110899;28;20348;-77
2022/05/10 10:15:18;;;;;;;1.02;1.02;;;30.70;99.90;;;;;;5116081;28;20027;-78
2022/05/10 10:18:11;;;;;;;0.40;0.40;;;31.20;99.90;;;;;;5116718;28;20046;-77
2022/05/10 10:20:57;;;;;;;1.30;1.02;;;31.10;99.90;;;;;;5116374;29;20038;-78
2022/05/10 10:23:41;;;;;;;0.50;0.50;;;30.60;99.90;;;;;;5116056;28;20038;-78
2022/05/10 10:26:31;;;;;;;0.45;0.45;;;30.60;99.90;;;;;;5115656;28;20039;-79
2022/05/10 10:29:24;;;;;;;0.60;0.60;;;31.50;99.90;;;;;;5101514;29;20034;-79
2022/05/10 10:32:04;;;;;;;0.50;0.50;;;33.30;99.90;;;;;;5117457;29;20227;-81
2022/05/10 10:34:50;;;;;;;0.60;0.60;;;33.00;99.90;;;;;;5116465;28;20050;-78
2022/05/10 10:37:56;;;;;;;1.15;1.08;;;33.40;99.90;;;;;;5117214;29;20036;-79
2022/05/10 10:40:43;;;;;;;0.40;0.40;;;33.40;99.90;;;;;;5156656;28;20044;-77
2022/05/10 10:43:36;;;;;;;0.68;0.68;;;33.80;99.90;;;;;;5179301;28;20046;-79
2022/05/10 10:46:30;;;;;;;0.77;0.77;;;33.50;99.90;;;;;;5177826;28;20036;-77
2022/05/10 10:49:19;;;;;;;0.60;0.60;;;35.00;99.90;;;;;;5157685;28;20195;-77
2022/05/10 10:51:53;;;;;;;1.15;1.05;;;36.00;98.30;;;;;;5159102;28;20052;-79
2022/05/10 10:54:30;;;;;;;0.70;0.70;;;36.00;99.90;;;;;;5161076;28;20299;-77
2022/05/10 10:57:44;;;;;;;1.40;1.35;;;35.80;98.50;;;;;;5161844;28;20026;-78
2022/05/10 11:00:50;;;;;;;0.90;0.90;;;35.90;97.80;;;;;;5160546;28;20017;-80
2022/05/10 11:03:36;;;;;;;0.63;0.63;;;35.20;97.30;;;;;;5178301;28;20581;-77
2022/05/10 11:06:18;;;;;;;1.02;1.02;;;34.70;97.00;;;;;;5169587;28;20042;-75
2022/05/10 11:08:55;;;;;;;1.73;1.15;;;34.70;96.30;;;;;;5179532;28;20316;-79
2022/05/10 11:12:00;;;;;;;1.05;1.05;;;35.20;96.40;;;;;;5179733;28;20030;-78
2022/05/10 11:14:48;;;;;;;0.73;0.73;;;34.30;96.80;;;;;;5178527;28;20046;-79
2022/05/10 11:17:41;;;;;;;0.80;0.80;;;33.30;96.10;;;;;;5179823;28;20030;-76
2022/05/10 11:20:44;;;;;;;1.10;1.10;;;31.60;98.40;;;;;;5179597;28;20377;-78
2022/05/10 11:23:33;;;;;;;0.40;0.40;;;30.40;99.10;;;;;;5174831;28;20034;-78
2022/05/10 11:26:26;;;;;;;0.75;0.65;;;30.50;98.70;;;;;;5179694;28;20204;-76
2022/05/10 11:29:38;;;;;;;2.17;0.80;;;29.50;98.70;;;;;;5175312;28;20529;-78
2022/05/10 11:32:18;;;;;;;4.13;1.35;;;30.00;99.60;;;;;;5179361;28;20017;-78
2022/05/10 11:35:02;;;;;;;0.68;0.68;;;29.80;99.90;;;;;;5182556;28;20336;-77
2022/05/10 11:37:44;;;;;;;0.93;0.93;;;29.60;99.90;;;;;;5183956;28;20025;-77
2022/05/10 11:40:42;;;;;;;2.45;1.73;;;32.50;99.90;;;;;;5183296;28;20052;-77
2022/05/10 11:43:19;;;;;;;1.15;1.05;;;36.60;96.60;;;;;;5161910;28;20042;-78
2022/05/10 11:46:20;;;;;;;0.80;0.80;;;37.40;94.60;;;;;;5144907;28;20047;-78
2022/05/10 11:49:07;;;;;;;0.80;0.80;;;35.70;95.70;;;;;;5163059;28;20026;-76
2022/05/10 11:52:06;;;;;;;1.02;1.02;;;33.60;95.80;;;;;;5171531;28;20038;-77
2022/05/10 11:54:42;;;;;;;0.60;0.60;;;31.10;97.40;;;;;;5182048;28;20075;-78
2022/05/10 11:57:19;;;;;;;0.73;0.73;;;30.20;97.30;;;;;;5181486;28;20042;-79
2022/05/10 11:59:51;;;;;;;0.70;0.70;;;31.10;99.30;;;;;;5182258;28;20345;-76
2022/05/10 12:02:28;;;;;;;0.40;0.40;;;32.80;96.70;;;;;;5181883;28;20030;-78
2022/05/10 12:05:14;;;;;;;0.85;0.85;;;32.10;96.90;;;;;;5171778;28;20049;-75
2022/05/10 12:07:50;;;;;;;0.68;0.65;;;30.80;97.50;;;;;;5181723;28;20306;-79
2022/05/10 12:10:21;;;;;;;1.10;1.10;;;31.80;97.40;;;;;;5181840;28;20207;-78
2022/05/10 12:12:55;;;;;;;0.60;0.60;;;33.40;96.80;;;;;;5162249;28;20301;-77
2022/05/10 12:21:26;;;;;;;0.50;0.50;;;35.20;94.60;;;;;;5197841;28;20038;-81
2022/05/10 12:24:05;;;;;;;1.25;1.20;;;37.10;94.10;;;;;;5179069;28;20040;-80
2022/05/10 12:26:46;;;;;;;0.80;0.80;;;38.00;93.20;;;;;;5182166;28;20225;-75
2022/05/10 12:29:39;;;;;;;0.90;0.90;;;38.70;92.90;;;;;;5164234;28;20022;-78
2022/05/10 12:32:28;;;;;;;1.58;1.48;;;40.00;92.00;;;;;;5176974;28;20022;-76
2022/05/10 12:35:04;;;;;;;0.65;0.65;;;38.80;90.10;;;;;;5181377;28;20044;-77
2022/05/10 12:37:53;;;;;;;0.80;0.80;;;38.50;91.50;;;;;;5165269;28;20373;-75
2022/05/10 12:40:34;;;;;;;1.30;1.20;;;39.70;90.40;;;;;;5181468;28;20025;-75
2022/05/10 12:43:28;;;;;;;1.27;0.85;;;39.50;88.40;;;;;;5162869;28;20205;-77
2022/05/10 12:46:05;;;;;;;;;;;39.80;89.50;;;;;;5184475;28;20329;-76
2022/05/10 12:49:01;;;;;;;1.02;1.02;;;38.40;90.10;;;;;;5168800;28;19902;-76
2022/05/10 12:51:52;;;;;;;0.65;0.65;;;38.90;88.80;;;;;;5191132;28;20036;-76
2022/05/10 12:54:27;;;;;;;0.90;0.90;;;38.50;87.20;;;;;;5189971;28;20048;-76
2022/05/10 12:57:37;;;;;;;1.20;1.10;;;38.00;87.20;;;;;;5188865;28;20025;-80
2022/05/10 13:00:13;;;;;;;0.60;0.60;;;37.30;88.60;;;;;;5178948;28;20044;-77
2022/05/10 13:03:12;;;;;;;1.13;1.02;;;38.00;90.30;;;;;;5166165;28;20136;-77
2022/05/10 13:05:52;;;;;;;0.95;0.90;;;37.90;88.00;;;;;;5167656;28;20060;-76
2022/05/10 13:08:37;;;;;;;0.63;0.63;;;37.60;86.70;;;;;;5165829;28;20048;-77
2022/05/10 13:11:09;;;;;;;0.45;0.45;;;36.70;88.80;;;;;;5177458;28;20201;-78
2022/05/10 13:13:44;;;;;;;1.15;0.93;;;36.90;87.60;;;;;;5182765;28;20046;-77
2022/05/10 13:16:20;;;;;;;0.68;0.68;;;37.90;86.80;;;;;;5183422;28;20036;-77
2022/05/10 13:18:54;;;;;;;0.70;0.70;;;37.80;86.80;;;;;;5184035;28;20037;-78
2022/05/10 13:21:31;;;;;;;0.93;0.90;;;36.80;85.10;;;;;;5179031;28;20022;-78
2022/05/10 13:24:11;;;;;;;0.60;0.60;;;35.30;89.00;;;;;;5160906;28;20226;-76
2022/05/10 13:26:58;;;;;;;1.30;1.30;;;32.70;91.40;;;;;;5158492;28;20070;-77
2022/05/10 13:29:48;;;;;;;1.17;1.13;;;30.90;91.80;;;;;;5178533;28;20176;-76
2022/05/10 13:32:29;;;;;;;1.25;1.15;;;31.20;92.40;;;;;;5181121;28;20032;-76
2022/05/10 13:35:14;;;;;;;1.08;0.98;;;32.30;91.30;;;;;;5182717;28;20063;-77
2022/05/10 13:38:11;;;;;;;0.52;0.52;;;32.30;91.30;;;;;;5180725;28;20026;-77
2022/05/10 13:40:48;;;;;;;1.27;1.17;;;34.70;90.50;;;;;;5182057;28;20288;-77
2022/05/10 13:43:23;;;;;;;1.25;1.13;;;36.90;88.30;;;;;;5181821;28;20063;-76
2022/05/10 13:45:58;;;;;;;0.85;0.85;;;38.00;87.20;;;;;;5164403;28;20026;-79
2022/05/10 13:48:37;;;;;;;0.90;0.90;;;38.90;85.50;;;;;;5182682;28;20199;-78
2022/05/10 13:51:37;;;;;;;1.05;0.85;;;38.10;85.00;;;;;;5182141;28;20025;-82
2022/05/10 13:54:23;;;;;;;0.63;0.63;;;37.00;86.00;;;;;;5180521;28;20064;-77
2022/05/10 13:57:10;;;;;;;0.70;0.70;;;35.80;87.90;;;;;;5179369;28;20033;-78
2022/05/10 13:59:46;;;;;;;0.80;0.80;;;36.40;86.50;;;;;;5181940;28;20314;-79
2022/05/10 14:02:21;;;;;;;0.80;0.80;;;36.70;87.60;;;;;;5167420;28;20040;-80
2022/05/10 14:04:55;;;;;;;0.80;0.80;;;37.60;85.00;;;;;;5166921;28;20058;-77
2022/05/10 14:07:35;;;;;;;0.93;0.93;;;36.10;87.00;;;;;;5166881;28;20053;-77
2022/05/10 14:10:14;;;;;;;0.68;0.68;;;36.80;86.90;;;;;;5158836;28;20042;-76
2022/05/10 14:12:50;;;;;;;0.50;0.50;;;35.90;86.80;;;;;;5154994;28;20252;-79